Time;durP1;ratioP1;P1;durP2;ratioP2;P2;SDS_P1;SDS_P2;PMS_P1;PMS_P2;Temp;Humidity;BMP_temperature;BMP_pressure;BME280_temperature;BME280_humidity;BME280_pressure;Samples;Min_cycle;Max_cycle;Signal;HPM_P1;HPM_P2
2022/08/20 00:00:01;;;;;;;10.53;9.67;;;;;;;;;;4970777;28;20438;-79
2022/08/20 00:02:27;;;;;;;10.63;9.87;;;;;;;;;;4971896;28;20425;-83
2022/08/20 00:04:53;;;;;;;11.23;10.43;;;;;;;;;;4973149;28;20201;-84
2022/08/20 00:07:19;;;;;;;9.53;8.90;;;;;;;;;;4982977;28;20965;-81
2022/08/20 00:09:45;;;;;;;12.57;10.40;;;;;;;;;;4973436;28;20585;-75
2022/08/20 00:12:12;;;;;;;10.77;9.70;;;;;;;;;;4972524;28;20492;-76
2022/08/20 00:14:38;;;;;;;11.57;10.23;;;;;;;;;;4973196;28;20532;-74
2022/08/20 00:17:05;;;;;;;10.37;9.43;;;;;;;;;;4972660;28;20915;-74
2022/08/20 00:19:31;;;;;;;11.60;8.90;;;;;;;;;;4970664;28;20450;-77
2022/08/20 00:21:57;;;;;;;10.70;9.90;;;;;;;;;;4972313;28;20437;-75
2022/08/20 00:24:23;;;;;;;9.00;8.47;;;;;;;;;;4971946;28;20448;-74
2022/08/20 00:26:49;;;;;;;8.50;7.90;;;;;;;;;;4972871;28;20438;-79
2022/08/20 00:29:15;;;;;;;9.03;8.30;;;;;;;;;;4971603;28;20456;-79
2022/08/20 00:31:42;;;;;;;9.27;8.57;;;;;;;;;;4970474;28;20446;-80
2022/08/20 00:34:08;;;;;;;8.60;7.97;;;;;;;;;;4972353;28;20441;-81
2022/08/20 00:36:34;;;;;;;8.17;7.63;;;;;;;;;;4973282;28;20446;-79
2022/08/20 00:39:00;;;;;;;8.10;7.60;;;;;;;;;;4972633;28;20521;-82
2022/08/20 00:41:27;;;;;;;7.43;6.93;;;;;;;;;;4972884;28;20945;-82
2022/08/20 00:44:08;;;;;;;9.20;8.60;;;;;;;;;;4971644;28;20525;-84
2022/08/20 00:46:35;;;;;;;6.80;6.30;;;;;;;;;;4972390;28;20442;-77
2022/08/20 00:49:04;;;;;;;7.60;7.07;;;;;;;;;;4972649;28;20453;-84
2022/08/20 00:51:33;;;;;;;7.20;6.80;;;;;;;;;;4972537;28;20460;-75
2022/08/20 00:54:05;;;;;;;9.03;8.23;;;;;;;;;;4971926;28;20434;-75
2022/08/20 00:56:32;;;;;;;7.70;7.20;;;;;;;;;;4972680;28;20458;-78
2022/08/20 00:58:59;;;;;;;7.20;6.80;;;;;;;;;;4971111;28;21009;-77
2022/08/20 01:01:25;;;;;;;7.67;7.03;;;;;;;;;;4973488;28;20934;-80
2022/08/20 01:03:55;;;;;;;7.53;7.03;;;;;;;;;;4971042;28;20445;-84
2022/08/20 01:06:23;;;;;;;8.53;8.03;;;;;;;;;;4972499;28;20422;-81
2022/08/20 01:08:49;;;;;;;7.07;6.70;;;;;;;;;;4971897;28;21056;-83
2022/08/20 01:11:16;;;;;;;8.50;8.10;;;;;;;;;;4970337;28;20489;-75
2022/08/20 01:13:44;;;;;;;8.00;7.60;;;;;;;;;;4971369;28;20430;-82
2022/08/20 01:16:17;;;;;;;11.20;7.43;;;;;;;;;;4970779;28;21017;-80
2022/08/20 01:18:43;;;;;;;6.87;6.53;;;;;;;;;;4970851;28;20433;-80
2022/08/20 01:21:10;;;;;;;7.13;6.60;;;;;;;;;;4972083;28;21004;-86
2022/08/20 01:23:43;;;;;;;7.80;7.30;;;;;;;;;;4970604;28;20525;-86
2022/08/20 01:26:14;;;;;;;6.50;6.20;;;;;;;;;;4973190;28;20447;-79
2022/08/20 01:28:47;;;;;;;5.23;5.03;;;;;;;;;;4971607;28;20455;-82
2022/08/20 01:31:15;;;;;;;7.57;6.87;;;;;;;;;;4970243;28;20535;-79
2022/08/20 01:33:41;;;;;;;6.40;6.17;;;;;;;;;;4971250;28;20434;-85
2022/08/20 01:36:07;;;;;;;7.10;6.70;;;;;;;;;;4971739;28;20986;-78
2022/08/20 01:38:34;;;;;;;7.17;6.77;;;;;;;;;;4971910;28;20441;-76
2022/08/20 01:41:00;;;;;;;7.40;6.77;;;;;;;;;;4970386;28;20438;-77
2022/08/20 01:43:27;;;;;;;6.73;6.43;;;;;;;;;;4970879;28;20432;-85
2022/08/20 01:45:53;;;;;;;7.47;6.73;;;;;;;;;;4971623;28;20489;-86
2022/08/20 01:48:19;;;;;;;7.50;6.90;;;;;;;;;;4971480;28;20437;-73
2022/08/20 01:50:51;;;;;;;8.60;8.00;;;;;;;;;;4971298;28;20520;-82
2022/08/20 01:53:32;;;;;;;7.60;7.10;;;;;;;;;;4971402;28;21147;-85
2022/08/20 01:55:58;;;;;;;7.93;7.33;;;;;;;;;;4971674;28;20483;-75
2022/08/20 01:58:28;;;;;;;7.80;7.10;;;;;;;;;;4971588;28;20505;-75
2022/08/20 02:00:54;;;;;;;7.40;7.10;;;;;;;;;;4971140;28;22021;-73
2022/08/20 02:03:20;;;;;;;7.17;5.93;;;;;;;;;;4971652;28;21234;-78
2022/08/20 02:05:46;;;;;;;7.23;6.63;;;;;;;;;;4971105;28;20848;-75
2022/08/20 02:08:12;;;;;;;7.20;6.67;;;;;;;;;;4970639;28;20449;-76
2022/08/20 02:10:38;;;;;;;6.97;6.57;;;;;;;;;;4969421;28;20497;-76
2022/08/20 02:13:04;;;;;;;6.37;6.07;;;;;;;;;;4970854;28;20442;-81
2022/08/20 02:15:30;;;;;;;6.53;6.23;;;;;;;;;;4971832;28;20199;-80
2022/08/20 02:17:56;;;;;;;7.13;6.70;;;;;;;;;;4971287;28;20444;-83
2022/08/20 02:20:26;;;;;;;8.47;7.63;;;;;;;;;;4970360;28;20442;-81
2022/08/20 02:22:57;;;;;;;18.33;5.70;;;;;;;;;;4970782;28;20438;-82
2022/08/20 02:25:25;;;;;;;6.80;6.40;;;;;;;;;;4971421;28;20480;-84
2022/08/20 02:27:52;;;;;;;6.43;5.90;;;;;;;;;;4970790;28;20483;-85
2022/08/20 02:30:23;;;;;;;6.90;6.17;;;;;;;;;;4970105;28;20526;-77
2022/08/20 02:32:49;;;;;;;7.00;6.40;;;;;;;;;;4969292;28;20868;-83
2022/08/20 02:35:15;;;;;;;7.67;6.87;;;;;;;;;;4970060;28;20513;-81
2022/08/20 02:37:42;;;;;;;7.40;6.97;;;;;;;;;;4971294;28;20478;-81
2022/08/20 02:40:09;;;;;;;6.83;6.07;;;;;;;;;;4970705;28;20444;-76
2022/08/20 02:42:36;;;;;;;6.67;6.17;;;;;;;;;;4970575;28;20573;-86
2022/08/20 02:45:04;;;;;;;5.73;5.40;;;;;;;;;;4971001;28;20429;-75
2022/08/20 02:47:30;;;;;;;15.30;5.80;;;;;;;;;;4971068;28;20973;-74
2022/08/20 02:49:58;;;;;;;6.27;5.93;;;;;;;;;;4970339;28;20485;-73
2022/08/20 02:52:24;;;;;;;7.10;6.50;;;;;;;;;;4969292;28;20477;-73
2022/08/20 02:54:51;;;;;;;6.70;6.30;;;;;;;;;;4970121;28;20469;-74
2022/08/20 02:57:19;;;;;;;6.63;6.07;;;;;;;;;;4970948;28;20652;-81
2022/08/20 02:59:45;;;;;;;7.50;6.60;;;;;;;;;;4970974;28;20488;-83
2022/08/20 03:02:11;;;;;;;14.00;7.27;;;;;;;;;;4969935;28;21178;-82
2022/08/20 03:04:37;;;;;;;7.07;6.63;;;;;;;;;;4970188;28;20451;-79
2022/08/20 03:07:04;;;;;;;10.53;7.23;;;;;;;;;;4969199;28;20446;-84
2022/08/20 03:09:30;;;;;;;7.43;6.70;;;;;;;;;;4970415;28;20572;-75
2022/08/20 03:11:56;;;;;;;8.87;6.43;;;;;;;;;;4970523;28;20437;-80
2022/08/20 03:14:22;;;;;;;6.70;6.33;;;;;;;;;;4970561;28;20429;-74
2022/08/20 03:16:48;;;;;;;6.30;5.87;;;;;;;;;;4970804;28;20525;-73
2022/08/20 03:19:14;;;;;;;6.53;6.10;;;;;;;;;;4970762;28;20521;-74
2022/08/20 03:21:40;;;;;;;5.87;5.30;;;;;;;;;;4970144;28;20586;-81
2022/08/20 03:24:07;;;;;;;6.03;5.60;;;;;;;;;;4969937;28;20479;-77
2022/08/20 03:26:33;;;;;;;7.27;6.03;;;;;;;;;;4970599;28;20445;-84
2022/08/20 03:28:59;;;;;;;6.60;6.17;;;;;;;;;;4970237;28;20465;-82
2022/08/20 03:31:25;;;;;;;5.83;4.93;;;;;;;;;;4969893;28;20548;-83
2022/08/20 03:33:51;;;;;;;6.47;5.87;;;;;;;;;;4969697;28;20492;-83
2022/08/20 03:36:17;;;;;;;6.30;5.80;;;;;;;;;;4973133;28;20849;-83
2022/08/20 03:38:43;;;;;;;5.80;5.40;;;;;;;;;;4974313;28;20436;-84
2022/08/20 03:41:09;;;;;;;6.27;5.87;;;;;;;;;;4974571;28;20437;-80
2022/08/20 03:43:36;;;;;;;12.60;6.90;;;;;;;;;;4973222;28;20504;-79
2022/08/20 03:46:02;;;;;;;6.50;5.90;;;;;;;;;;4973660;28;20194;-76
2022/08/20 03:48:28;;;;;;;4.83;4.70;;;;;;;;;;4974405;28;20452;-77
2022/08/20 03:50:55;;;;;;;6.27;5.60;;;;;;;;;;4973499;28;20493;-75
2022/08/20 03:53:21;;;;;;;6.17;5.77;;;;;;;;;;4973719;28;20441;-80
2022/08/20 03:55:48;;;;;;;5.87;5.57;;;;;;;;;;4971710;28;20485;-79
2022/08/20 03:58:16;;;;;;;7.60;5.27;;;;;;;;;;4973532;28;20422;-82
2022/08/20 04:00:49;;;;;;;6.47;5.73;;;;;;;;;;4973018;28;20465;-80
2022/08/20 04:03:16;;;;;;;6.70;5.30;;;;;;;;;;4971682;28;20559;-81
2022/08/20 04:05:43;;;;;;;5.27;4.87;;;;;;;;;;4973423;28;20440;-80
2022/08/20 04:08:11;;;;;;;4.80;4.70;;;;;;;;;;4972061;28;20442;-74
2022/08/20 04:10:37;;;;;;;5.93;5.10;;;;;;;;;;4973687;28;20499;-83
2022/08/20 04:13:05;;;;;;;5.20;4.83;;;;;;;;;;4973017;28;20446;-84
2022/08/20 04:15:31;;;;;;;5.60;5.30;;;;;;;;;;4972611;28;20974;-84
2022/08/20 04:17:58;;;;;;;4.77;4.57;;;;;;;;;;4972440;28;20430;-82
2022/08/20 04:20:24;;;;;;;6.97;4.40;;;;;;;;;;4973368;28;20434;-85
2022/08/20 04:22:51;;;;;;;4.70;4.47;;;;;;;;;;4972239;28;20432;-76
2022/08/20 04:25:18;;;;;;;4.67;4.47;;;;;;;;;;4973160;28;20915;-76
2022/08/20 04:27:45;;;;;;;5.20;4.87;;;;;;;;;;4973329;28;20434;-86
2022/08/20 04:30:11;;;;;;;4.10;3.93;;;;;;;;;;4987388;28;20576;-78
2022/08/20 04:32:38;;;;;;;4.33;4.23;;;;;;;;;;4971045;28;20453;-83
2022/08/20 04:35:06;;;;;;;4.20;4.10;;;;;;;;;;4969756;28;20794;-78
2022/08/20 04:37:32;;;;;;;3.93;3.83;;;;;;;;;;4971707;28;20430;-81
2022/08/20 04:42:43;;;;;;;4.43;4.13;;;;;;;;;;4971617;28;20433;-83
2022/08/20 04:45:10;;;;;;;5.80;5.20;;;;;;;;;;4972625;28;20434;-86
2022/08/20 04:47:36;;;;;;;4.17;4.07;;;;;;;;;;4972657;28;20434;-83
2022/08/20 04:50:02;;;;;;;4.40;4.20;;;;;;;;;;4973412;28;20532;-85
2022/08/20 04:52:31;;;;;;;4.87;4.70;;;;;;;;;;4971673;28;20430;-82
2022/08/20 04:54:57;;;;;;;4.60;4.37;;;;;;;;;;4973047;28;20864;-80
2022/08/20 04:57:24;;;;;;;5.10;4.60;;;;;;;;;;4972774;28;20992;-75
2022/08/20 04:59:50;;;;;;;4.20;3.90;;;;;;;;;;4972282;28;20445;-85
2022/08/20 05:02:17;;;;;;;4.83;4.57;;;;;;;;;;4971666;28;20786;-84
2022/08/20 05:04:43;;;;;;;5.10;4.70;;;;;;;;;;4970968;28;20437;-78
2022/08/20 05:07:11;;;;;;;4.60;4.40;;;;;;;;;;4972337;28;20444;-76
2022/08/20 05:09:37;;;;;;;5.33;5.13;;;;;;;;;;4972349;28;20473;-80
2022/08/20 05:12:03;;;;;;;5.20;4.60;;;;;;;;;;4971167;28;20530;-81
2022/08/20 05:14:30;;;;;;;5.03;4.93;;;;;;;;;;4972199;28;20406;-81
2022/08/20 05:16:59;;;;;;;4.70;4.60;;;;;;;;;;4972437;28;20446;-80
2022/08/20 05:19:25;;;;;;;7.07;5.03;;;;;;;;;;4972269;28;20434;-84
2022/08/20 05:21:52;;;;;;;3.90;3.80;;;;;;;;;;4972228;28;20434;-76
2022/08/20 05:24:20;;;;;;;3.50;3.40;;;;;;;;;;4971044;28;20860;-82
2022/08/20 05:26:46;;;;;;;4.70;3.57;;;;;;;;;;4971806;28;20476;-85
2022/08/20 05:29:12;;;;;;;12.93;3.20;;;;;;;;;;4972200;28;20458;-82
2022/08/20 05:31:38;;;;;;;5.47;3.33;;;;;;;;;;4970774;28;20548;-83
2022/08/20 05:34:08;;;;;;;4.03;3.77;;;;;;;;;;4969974;28;20434;-83
2022/08/20 05:36:34;;;;;;;5.13;3.10;;;;;;;;;;4972286;28;20446;-73
2022/08/20 05:39:00;;;;;;;9.20;3.33;;;;;;;;;;4971802;28;20852;-78
2022/08/20 05:41:28;;;;;;;4.60;3.00;;;;;;;;;;4971582;28;20525;-73
2022/08/20 05:43:54;;;;;;;4.40;3.07;;;;;;;;;;4971511;28;20913;-84
2022/08/20 05:46:21;;;;;;;3.60;2.60;;;;;;;;;;4972033;28;20513;-78
2022/08/20 05:48:47;;;;;;;4.47;2.77;;;;;;;;;;4972236;28;20442;-81
2022/08/20 05:51:14;;;;;;;2.73;2.57;;;;;;;;;;4970212;28;20543;-84
2022/08/20 05:53:40;;;;;;;2.30;2.20;;;;;;;;;;4969282;28;20434;-79
2022/08/20 05:56:06;;;;;;;3.03;2.80;;;;;;;;;;4971554;28;20493;-73
2022/08/20 05:58:32;;;;;;;2.77;2.53;;;;;;;;;;4970359;28;20804;-78
2022/08/20 06:00:58;;;;;;;7.30;2.10;;;;;;;;;;4970947;28;20426;-84
2022/08/20 06:06:10;;;;;;;2.93;2.17;;;;;;;;;;4969830;28;20964;-82
2022/08/20 06:08:36;;;;;;;3.90;2.07;;;;;;;;;;4969576;28;20445;-81
2022/08/20 06:11:03;;;;;;;2.30;2.10;;;;;;;;;;4971807;28;20478;-76
2022/08/20 06:13:29;;;;;;;2.47;2.00;;;;;;;;;;4970895;28;20493;-83
2022/08/20 06:15:56;;;;;;;2.23;2.13;;;;;;;;;;4968126;28;20445;-75
2022/08/20 06:18:22;;;;;;;4.63;1.93;;;;;;;;;;4970156;28;20465;-81
2022/08/20 06:20:49;;;;;;;3.13;2.60;;;;;;;;;;4971149;28;20434;-83
2022/08/20 06:23:15;;;;;;;2.90;2.70;;;;;;;;;;4970333;28;20450;-75
2022/08/20 06:25:41;;;;;;;1.90;1.90;;;;;;;;;;4970586;28;20457;-81
2022/08/20 06:28:08;;;;;;;4.00;2.33;;;;;;;;;;4968623;28;20456;-76
2022/08/20 06:30:34;;;;;;;3.73;2.60;;;;;;;;;;4970678;28;21312;-81
2022/08/20 06:33:00;;;;;;;2.27;2.17;;;;;;;;;;4968743;28;20476;-84
2022/08/20 06:35:26;;;;;;;2.00;2.00;;;;;;;;;;4970596;28;20426;-81
2022/08/20 06:37:52;;;;;;;1.87;1.77;;;;;;;;;;4970497;28;20434;-80
2022/08/20 06:40:20;;;;;;;2.30;1.33;;;;;;;;;;4970205;28;20449;-74
2022/08/20 06:42:46;;;;;;;1.73;1.70;;;;;;;;;;4969142;28;20453;-84
2022/08/20 06:45:13;;;;;;;2.40;1.43;;;;;;;;;;4970093;28;20457;-67
2022/08/20 06:47:42;;;;;;;1.93;1.70;;;;;;;;;;4970997;28;20829;-66
2022/08/20 06:50:12;;;;;;;2.07;1.70;;;;;;;;;;4969627;28;20558;-67
2022/08/20 06:52:38;;;;;;;5.13;2.23;;;;;;;;;;4968045;28;20446;-66
2022/08/20 06:55:04;;;;;;;1.40;1.40;;;;;;;;;;4970052;28;20489;-66
2022/08/20 06:57:30;;;;;;;1.87;1.80;;;;;;;;;;4970080;28;20458;-66
2022/08/20 06:59:57;;;;;;;2.40;2.20;;;;;;;;;;4971614;28;20433;-66
2022/08/20 07:02:23;;;;;;;2.20;2.10;;;;;;;;;;4970069;28;20194;-67
2022/08/20 07:04:49;;;;;;;1.90;1.80;;;;;;;;;;4969671;28;20430;-67
2022/08/20 07:07:19;;;;;;;1.60;1.60;;;;;;;;;;4970075;28;20537;-67
2022/08/20 07:09:45;;;;;;;1.77;1.77;;;;;;;;;;4973180;28;20481;-67
2022/08/20 07:12:11;;;;;;;1.60;1.60;;;;;;;;;;4973700;28;20437;-67
2022/08/20 07:14:37;;;;;;;1.80;1.70;;;;;;;;;;4973373;28;20457;-67
2022/08/20 07:17:04;;;;;;;2.00;1.90;;;;;;;;;;4973490;28;20521;-66
2022/08/20 07:19:30;;;;;;;1.80;1.63;;;;;;;;;;4974095;28;20438;-67
2022/08/20 07:21:57;;;;;;;4.93;1.63;;;;;;;;;;4975139;28;20520;-66
2022/08/20 07:24:23;;;;;;;3.17;1.50;;;;;;;;;;4974588;28;20441;-66
2022/08/20 07:26:50;;;;;;;2.10;2.10;;;;;;;;;;4972854;28;20557;-67
2022/08/20 07:29:16;;;;;;;1.83;1.43;;;;;;;;;;4970780;28;20438;-66
2022/08/20 07:34:29;;;;;;;1.90;1.73;;;;;;;;;;4972377;28;20945;-67
2022/08/20 07:36:59;;;;;;;1.00;0.93;;;;;;;;;;4972685;28;20438;-67
2022/08/20 07:39:25;;;;;;;2.93;1.43;;;;;;;;;;4973330;28;20445;-67
2022/08/20 07:42:01;;;;;;;1.13;1.03;;;;;;;;;;4972762;28;20934;-67
2022/08/20 07:44:28;;;;;;;2.77;1.27;;;;;;;;;;4971600;28;20819;-67
2022/08/20 07:46:54;;;;;;;1.53;0.50;;;;;;;;;;4973107;28;20988;-66
2022/08/20 07:49:20;;;;;;;0.90;0.77;;;;;;;;;;4973106;28;20410;-67
2022/08/20 07:51:46;;;;;;;0.77;0.77;;;;;;;;;;4972985;28;20476;-82
2022/08/20 07:54:12;;;;;;;0.93;0.93;;;;;;;;;;4972553;28;20907;-76
2022/08/20 07:56:38;;;;;;;0.83;0.83;;;;;;;;;;4973498;28;20441;-75
2022/08/20 07:59:05;;;;;;;1.10;1.10;;;;;;;;;;4972082;28;20437;-73
2022/08/20 08:01:31;;;;;;;0.80;0.80;;;;;;;;;;4973432;28;20501;-73
2022/08/20 08:03:57;;;;;;;1.13;0.90;;;;;;;;;;4972331;28;20926;-73
2022/08/20 08:06:24;;;;;;;1.10;1.00;;;;;;;;;;4972756;28;20444;-74
2022/08/20 08:08:51;;;;;;;2.43;1.00;;;;;;;;;;4971331;28;20468;-76
2022/08/20 08:11:18;;;;;;;1.20;0.87;;;;;;;;;;4973430;28;20497;-78
2022/08/20 08:13:44;;;;;;;0.80;0.60;;;;;;;;;;4972085;28;20434;-76
2022/08/20 08:16:10;;;;;;;3.03;1.40;;;;;;;;;;4973095;28;20532;-73
2022/08/20 08:18:54;;;;;;;3.37;3.27;;;;;;;;;;4972735;28;20418;-72
2022/08/20 08:21:21;;;;;;;0.93;0.93;;;;;;;;;;4972598;28;20481;-72
2022/08/20 08:23:47;;;;;;;0.70;0.70;;;;;;;;;;4970768;28;20437;-74
2022/08/20 08:26:14;;;;;;;1.20;1.20;;;;;;;;;;4970838;28;20950;-73
2022/08/20 08:28:40;;;;;;;1.20;1.20;;;;;;;;;;4971192;28;20441;-75
2022/08/20 08:31:07;;;;;;;1.30;1.30;;;;;;;;;;4974491;28;20492;-73
2022/08/20 08:33:33;;;;;;;4.70;0.77;;;;;;;;;;4969625;28;20441;-76
2022/08/20 08:36:12;;;;;;;1.00;1.00;;;;;;;;;;4972528;28;20430;-79
2022/08/20 08:38:40;;;;;;;0.80;0.80;;;;;;;;;;4971905;28;20445;-85
2022/08/20 08:41:15;;;;;;;0.77;0.77;;;;;;;;;;4971921;28;20438;-80
2022/08/20 08:43:42;;;;;;;1.00;1.00;;;;;;;;;;4972459;28;20441;-85
2022/08/20 08:46:09;;;;;;;4.63;0.80;;;;;;;;;;4971030;28;20437;-82
2022/08/20 08:48:37;;;;;;;3.90;1.00;;;;;;;;;;4972572;28;22248;-77
2022/08/20 08:51:05;;;;;;;0.87;0.87;;;;;;;;;;4970651;28;20504;-86
2022/08/20 08:53:33;;;;;;;0.73;0.73;;;;;;;;;;4972007;28;20613;-85
2022/08/20 08:56:00;;;;;;;0.93;0.93;;;;;;;;;;4972033;28;21006;-72
2022/08/20 08:58:26;;;;;;;1.00;1.00;;;;;;;;;;4971325;28;20804;-85
2022/08/20 09:00:53;;;;;;;3.90;0.80;;;;;;;;;;4971472;28;20430;-84
2022/08/20 09:03:24;;;;;;;0.90;0.90;;;;;;;;;;4971484;28;20441;-82
2022/08/20 09:05:52;;;;;;;0.80;0.80;;;;;;;;;;4971941;28;20969;-85
2022/08/20 09:08:23;;;;;;;2.23;0.93;;;;;;;;;;4972531;28;20445;-85
2022/08/20 09:10:49;;;;;;;1.50;1.50;;;;;;;;;;4971780;28;21019;-74
2022/08/20 09:13:16;;;;;;;1.80;1.70;;;;;;;;;;4971411;28;20430;-81
2022/08/20 09:15:42;;;;;;;3.33;3.23;;;;;;;;;;4972067;28;20922;-74
2022/08/20 09:18:08;;;;;;;2.97;2.87;;;;;;;;;;4972445;28;20426;-79
2022/08/20 09:20:34;;;;;;;1.97;1.87;;;;;;;;;;4971646;28;20813;-77
2022/08/20 09:23:00;;;;;;;1.87;1.87;;;;;;;;;;4971840;28;20482;-77
2022/08/20 09:25:26;;;;;;;1.00;0.83;;;;;;;;;;4971649;28;20430;-75
2022/08/20 09:27:52;;;;;;;6.13;1.20;;;;;;;;;;4971217;28;20434;-79
2022/08/20 09:30:18;;;;;;;0.90;0.90;;;;;;;;;;4972025;28;20500;-76
2022/08/20 09:32:44;;;;;;;1.10;1.10;;;;;;;;;;4970382;28;20922;-81
2022/08/20 09:35:12;;;;;;;1.00;1.00;;;;;;;;;;4971277;28;20445;-83
2022/08/20 09:37:38;;;;;;;1.13;1.13;;;;;;;;;;4970032;28;20579;-85
2022/08/20 09:40:05;;;;;;;1.07;0.97;;;;;;;;;;4970238;28;21772;-85
2022/08/20 09:42:33;;;;;;;0.87;0.87;;;;;;;;;;4969649;28;20450;-82
2022/08/20 09:44:59;;;;;;;0.87;0.63;;;;;;;;;;4971701;28;20472;-76
2022/08/20 09:47:25;;;;;;;0.63;0.63;;;;;;;;;;4971817;28;20864;-81
2022/08/20 09:49:51;;;;;;;0.60;0.60;;;;;;;;;;4971651;28;20841;-74
2022/08/20 09:52:21;;;;;;;0.90;0.90;;;;;;;;;;4970885;28;20461;-80
2022/08/20 09:54:47;;;;;;;0.87;0.87;;;;;;;;;;4972131;28;20478;-84
2022/08/20 09:57:14;;;;;;;1.10;1.10;;;;;;;;;;4971251;28;20446;-82
2022/08/20 09:59:40;;;;;;;0.60;0.60;;;;;;;;;;4971707;28;20425;-87
2022/08/20 10:02:06;;;;;;;0.80;0.80;;;;;;;;;;4972261;28;20477;-82
2022/08/20 10:04:32;;;;;;;3.60;0.60;;;;;;;;;;4970988;28;20512;-84
2022/08/20 10:06:58;;;;;;;0.60;0.60;;;;;;;;;;4971866;28;20474;-74
2022/08/20 10:09:24;;;;;;;0.70;0.70;;;;;;;;;;4971750;28;20418;-83
2022/08/20 10:11:50;;;;;;;0.60;0.60;;;;;;;;;;4970385;28;20496;-80
2022/08/20 10:14:16;;;;;;;1.47;0.87;;;;;;;;;;4971550;28;20466;-80
2022/08/20 10:16:42;;;;;;;1.40;1.40;;;;;;;;;;4971457;28;20496;-82
2022/08/20 10:19:08;;;;;;;0.70;0.70;;;;;;;;;;4971231;28;20426;-85
2022/08/20 10:21:34;;;;;;;0.80;0.80;;;;;;;;;;4971534;28;20433;-81
2022/08/20 10:24:00;;;;;;;0.70;0.70;;;;;;;;;;4970441;28;20442;-77
2022/08/20 10:26:26;;;;;;;1.47;0.87;;;;;;;;;;4971471;28;20481;-85
2022/08/20 10:28:52;;;;;;;0.90;0.60;;;;;;;;;;4971147;28;20449;-78
2022/08/20 10:31:18;;;;;;;0.87;0.87;;;;;;;;;;4970662;28;20489;-80
2022/08/20 10:33:44;;;;;;;2.77;2.57;;;;;;;;;;4969118;28;20469;-82
2022/08/20 10:36:12;;;;;;;1.10;1.10;;;;;;;;;;4970418;28;20473;-79
2022/08/20 10:38:38;;;;;;;1.17;1.17;;;;;;;;;;4970018;28;20448;-80
2022/08/20 10:41:04;;;;;;;0.90;0.90;;;;;;;;;;4985464;28;20448;-84
2022/08/20 10:43:30;;;;;;;1.20;1.20;;;;;;;;;;4970210;28;20445;-75
2022/08/20 10:45:56;;;;;;;0.60;0.60;;;;;;;;;;4971054;28;20433;-87
2022/08/20 10:48:22;;;;;;;0.60;0.60;;;;;;;;;;4970185;28;20951;-81
2022/08/20 10:50:49;;;;;;;1.37;0.73;;;;;;;;;;4971208;28;20485;-83
2022/08/20 10:53:15;;;;;;;0.70;0.70;;;;;;;;;;4969452;28;20970;-78
2022/08/20 10:55:41;;;;;;;0.70;0.70;;;;;;;;;;4970550;28;20985;-80
2022/08/20 10:58:07;;;;;;;0.67;0.67;;;;;;;;;;4970709;28;20442;-80
2022/08/20 11:00:34;;;;;;;0.60;0.60;;;;;;;;;;4967765;28;20445;-75
2022/08/20 11:03:00;;;;;;;0.60;0.60;;;;;;;;;;4969328;28;20602;-84
2022/08/20 11:05:26;;;;;;;0.83;0.83;;;;;;;;;;4967863;28;20799;-78
2022/08/20 11:07:53;;;;;;;9.50;0.70;;;;;;;;;;4969748;28;20473;-80
2022/08/20 11:10:20;;;;;;;0.67;0.67;;;;;;;;;;4969388;28;20484;-77
2022/08/20 11:12:46;;;;;;;0.60;0.60;;;;;;;;;;4969706;28;20827;-74
2022/08/20 11:15:12;;;;;;;0.90;0.90;;;;;;;;;;4969354;28;20934;-77
2022/08/20 11:17:40;;;;;;;0.80;0.80;;;;;;;;;;4970639;28;20987;-77
2022/08/20 11:20:07;;;;;;;0.50;0.50;;;;;;;;;;4969878;28;20454;-76
2022/08/20 11:22:33;;;;;;;0.70;0.70;;;;;;;;;;4968650;28;20500;-83
2022/08/20 11:25:00;;;;;;;2.07;2.00;;;;;;;;;;4969259;28;20426;-86
2022/08/20 11:27:30;;;;;;;0.93;0.93;;;;;;;;;;4969637;28;20919;-84
2022/08/20 11:29:56;;;;;;;1.50;0.50;;;;;;;;;;4969880;28;20469;-81
2022/08/20 11:32:22;;;;;;;1.17;1.07;;;;;;;;;;4966853;28;20457;-84
2022/08/20 11:34:49;;;;;;;0.70;0.70;;;;;;;;;;4969530;28;20456;-78
2022/08/20 11:37:16;;;;;;;0.70;0.70;;;;;;;;;;4970584;28;20437;-84
2022/08/20 11:39:42;;;;;;;10.00;1.00;;;;;;;;;;4970293;28;20421;-85
2022/08/20 11:42:09;;;;;;;0.60;0.60;;;;;;;;;;4970301;28;20466;-85
2022/08/20 11:44:35;;;;;;;0.50;0.50;;;;;;;;;;4969115;28;20436;-77
2022/08/20 11:47:02;;;;;;;1.10;1.10;;;;;;;;;;4970284;28;20529;-83
2022/08/20 11:49:29;;;;;;;1.00;0.80;;;;;;;;;;4969332;28;20434;-80
2022/08/20 11:51:55;;;;;;;0.83;0.83;;;;;;;;;;4967806;28;20503;-85
2022/08/20 11:54:21;;;;;;;1.43;0.83;;;;;;;;;;4968808;28;20472;-73
2022/08/20 11:56:48;;;;;;;0.90;0.90;;;;;;;;;;4970892;28;20440;-74
2022/08/20 11:59:14;;;;;;;1.43;0.80;;;;;;;;;;4971444;28;20187;-74
2022/08/20 12:01:40;;;;;;;4.10;1.20;;;;;;;;;;4972867;28;20576;-76
2022/08/20 12:04:06;;;;;;;1.00;1.00;;;;;;;;;;4971250;28;20429;-79
2022/08/20 12:06:32;;;;;;;0.50;0.50;;;;;;;;;;4974003;28;20214;-76
2022/08/20 12:08:58;;;;;;;0.60;0.60;;;;;;;;;;4973580;28;20438;-82
2022/08/20 12:11:24;;;;;;;0.83;0.83;;;;;;;;;;4973849;28;20555;-75
2022/08/20 12:13:50;;;;;;;0.87;0.87;;;;;;;;;;4974642;28;20438;-80
2022/08/20 12:16:17;;;;;;;0.60;0.57;;;;;;;;;;4974064;28;20446;-81
2022/08/20 12:18:44;;;;;;;0.60;0.60;;;;;;;;;;4972778;28;20793;-84
2022/08/20 12:21:10;;;;;;;0.40;0.40;;;;;;;;;;4973677;28;20588;-75
2022/08/20 12:23:36;;;;;;;0.60;0.60;;;;;;;;;;4972017;28;20512;-85
2022/08/20 12:26:02;;;;;;;1.43;1.03;;;;;;;;;;4973014;28;20495;-76
2022/08/20 12:28:29;;;;;;;0.60;0.60;;;;;;;;;;4973425;28;20561;-76
2022/08/20 12:30:55;;;;;;;0.60;0.60;;;;;;;;;;4971387;28;20563;-79
2022/08/20 12:33:21;;;;;;;0.77;0.77;;;;;;;;;;4972066;28;20456;-79
2022/08/20 12:35:47;;;;;;;0.67;0.67;;;;;;;;;;4973307;28;20442;-74
2022/08/20 12:38:13;;;;;;;0.50;0.50;;;;;;;;;;4971968;28;20489;-79
2022/08/20 12:40:39;;;;;;;1.33;0.77;;;;;;;;;;4972569;28;20965;-82
2022/08/20 12:43:05;;;;;;;0.40;0.40;;;;;;;;;;4971724;28;20444;-75
2022/08/20 12:45:32;;;;;;;5.93;0.70;;;;;;;;;;4973762;28;20446;-74
2022/08/20 12:48:02;;;;;;;0.57;0.57;;;;;;;;;;4972096;28;20586;-85
2022/08/20 12:50:28;;;;;;;0.57;0.57;;;;;;;;;;4971978;28;20485;-75
2022/08/20 12:52:54;;;;;;;0.80;0.80;;;;;;;;;;4971330;28;20449;-78
2022/08/20 12:55:20;;;;;;;0.60;0.60;;;;;;;;;;4969681;28;20854;-80
2022/08/20 12:57:51;;;;;;;0.90;0.90;;;;;;;;;;4971288;28;20525;-80
2022/08/20 13:00:22;;;;;;;0.70;0.70;;;;;;;;;;4972018;28;20446;-81
2022/08/20 13:02:49;;;;;;;0.60;0.50;;;;;;;;;;4969067;28;20446;-85
2022/08/20 13:05:16;;;;;;;0.70;0.70;;;;;;;;;;4971463;28;20450;-86
2022/08/20 13:07:42;;;;;;;0.70;0.70;;;;;;;;;;4973598;28;20454;-85
2022/08/20 13:10:10;;;;;;;1.63;1.23;;;;;;;;;;4970437;28;20458;-82
2022/08/20 13:12:36;;;;;;;0.63;0.63;;;;;;;;;;4972416;28;20449;-81
2022/08/20 13:15:02;;;;;;;0.53;0.53;;;;;;;;;;4970592;28;20481;-82
2022/08/20 13:17:28;;;;;;;1.80;0.60;;;;;;;;;;4971717;28;20521;-81
2022/08/20 13:19:54;;;;;;;0.93;0.93;;;;;;;;;;4971663;28;20441;-78
2022/08/20 13:22:20;;;;;;;7.83;0.73;;;;;;;;;;4971162;28;20442;-81
2022/08/20 13:24:46;;;;;;;0.70;0.70;;;;;;;;;;4972145;28;20430;-84
2022/08/20 13:27:17;;;;;;;0.80;0.80;;;;;;;;;;4987440;28;20445;-85
2022/08/20 13:29:50;;;;;;;0.70;0.70;;;;;;;;;;4970615;28;20426;-79
2022/08/20 13:32:16;;;;;;;1.43;0.70;;;;;;;;;;4971613;28;20536;-84
2022/08/20 13:34:44;;;;;;;0.77;0.77;;;;;;;;;;4971192;28;20430;-85
2022/08/20 13:37:12;;;;;;;0.53;0.53;;;;;;;;;;4972235;28;20426;-83
2022/08/20 13:39:39;;;;;;;0.67;0.67;;;;;;;;;;4972366;28;20458;-83
2022/08/20 13:42:05;;;;;;;1.23;0.63;;;;;;;;;;4972362;28;20787;-77
2022/08/20 13:44:31;;;;;;;0.73;0.73;;;;;;;;;;4972021;28;20457;-85
2022/08/20 13:46:57;;;;;;;0.90;0.90;;;;;;;;;;4971684;28;20446;-86
2022/08/20 13:49:23;;;;;;;0.60;0.60;;;;;;;;;;4972555;28;20497;-82
2022/08/20 13:51:49;;;;;;;0.53;0.53;;;;;;;;;;4971463;28;21248;-82
2022/08/20 13:54:15;;;;;;;0.60;0.60;;;;;;;;;;4970742;28;20534;-79
2022/08/20 13:56:41;;;;;;;0.80;0.80;;;;;;;;;;4970500;28;20453;-82
2022/08/20 13:59:07;;;;;;;0.57;0.57;;;;;;;;;;4970910;28;20434;-77
2022/08/20 14:01:33;;;;;;;0.57;0.57;;;;;;;;;;4970901;28;20438;-83
2022/08/20 14:03:59;;;;;;;0.60;0.60;;;;;;;;;;4970660;28;20437;-78
2022/08/20 14:06:25;;;;;;;1.07;0.70;;;;;;;;;;4971847;28;20434;-79
2022/08/20 14:08:51;;;;;;;0.47;0.47;;;;;;;;;;4971864;28;20437;-84
2022/08/20 14:11:18;;;;;;;0.73;0.73;;;;;;;;;;4972118;28;20481;-85
2022/08/20 14:13:44;;;;;;;0.60;0.60;;;;;;;;;;4971123;28;20943;-86
2022/08/20 14:16:10;;;;;;;0.60;0.53;;;;;;;;;;4970601;28;20440;-83
2022/08/20 14:18:35;;;;;;;0.90;0.90;;;;;;;;;;4971468;28;21003;-84
2022/08/20 14:21:01;;;;;;;0.60;0.60;;;;;;;;;;4971940;28;20452;-83
2022/08/20 14:23:27;;;;;;;0.67;0.67;;;;;;;;;;4972129;28;20441;-75
2022/08/20 14:25:53;;;;;;;1.07;0.70;;;;;;;;;;4971120;28;20438;-76
2022/08/20 14:28:23;;;;;;;0.73;0.73;;;;;;;;;;4971303;28;20442;-82
2022/08/20 14:30:50;;;;;;;0.77;0.77;;;;;;;;;;4970886;28;20485;-86
2022/08/20 14:33:16;;;;;;;7.30;0.70;;;;;;;;;;4970153;28;20442;-85
2022/08/20 14:35:42;;;;;;;0.70;0.70;;;;;;;;;;4970657;28;20480;-86
2022/08/20 14:38:08;;;;;;;0.67;0.67;;;;;;;;;;4969771;28;20945;-79
2022/08/20 14:40:34;;;;;;;0.70;0.70;;;;;;;;;;4970520;28;20441;-87
2022/08/20 14:43:01;;;;;;;0.90;0.90;;;;;;;;;;4970140;28;20426;-85
2022/08/20 14:45:27;;;;;;;0.60;0.60;;;;;;;;;;4971492;28;20484;-81
2022/08/20 14:47:54;;;;;;;1.23;0.73;;;;;;;;;;4970868;28;20430;-83